Terminal Aerodrome Forecast
Issued by NWS

Home | Current Version | Previous Version | Text Only | Print | Product List | Glossary On
Versions: 1 2 3 4 5 6 7 8 9 10 11 12 13
000
FTUS43 KICT 202300
TAFCNU
TAF
KCNU 202327Z 2100/2124 21008KT P6SM BKN250
     FM210300 21007KT P6SM VCTS SCT050CB
     FM210700 34007KT P6SM SCT100
     FM211500 03014KT P6SM SCT250=

USA.gov is the U.S. government's official web portal to all federal, state and local government web resources and services.